createdAt,value
2023-04-22T00:02:16.913Z,4.93
2023-04-22T00:04:46.518Z,5.18
2023-04-22T00:07:14.717Z,5.40
2023-04-22T00:09:42.039Z,4.63
2023-04-22T00:12:11.601Z,4.80
2023-04-22T00:14:38.885Z,5.07
2023-04-22T00:17:07.036Z,4.88
2023-04-22T00:19:34.446Z,5.18
2023-04-22T00:22:01.332Z,4.63
2023-04-22T00:24:27.988Z,5.32
2023-04-22T00:26:54.814Z,5.32
2023-04-22T00:29:21.491Z,4.95
2023-04-22T00:31:48.404Z,5.38
2023-04-22T00:34:17.785Z,5.40
2023-04-22T00:36:45.232Z,5.57
2023-04-22T00:39:12.521Z,4.30
2023-04-22T00:41:39.936Z,4.80
2023-04-22T00:44:10.874Z,5.45
2023-04-22T00:46:39.218Z,5.22
2023-04-22T00:49:07.120Z,5.30
2023-04-22T00:51:34.239Z,5.38
2023-04-22T00:54:01.929Z,5.95
2023-04-22T00:56:31.307Z,5.80
2023-04-22T00:58:58.948Z,5.78
2023-04-22T01:01:26.372Z,5.88
2023-04-22T01:03:53.915Z,6.22
2023-04-22T01:06:22.187Z,5.60
2023-04-22T01:08:48.952Z,5.85
2023-04-22T01:11:15.796Z,5.85
2023-04-22T01:13:42.723Z,5.85
2023-04-22T01:16:10.858Z,6.00
2023-04-22T01:18:37.587Z,5.63
2023-04-22T01:21:05.050Z,5.95
2023-04-22T01:23:31.885Z,6.47
2023-04-22T01:25:58.713Z,6.43
2023-04-22T01:28:26.067Z,6.18
2023-04-22T01:30:52.877Z,6.50
2023-04-22T01:33:20.097Z,6.60
2023-04-22T01:35:46.821Z,5.55
2023-04-22T01:38:13.760Z,6.25
2023-04-22T01:40:40.995Z,5.85
2023-04-22T01:43:07.928Z,6.22
2023-04-22T01:45:36.751Z,5.55
2023-04-22T01:48:06.903Z,5.90
2023-04-22T01:50:33.746Z,5.38
2023-04-22T01:53:00.733Z,5.57
2023-04-22T01:55:27.676Z,5.57
2023-04-22T01:57:54.325Z,6.18
2023-04-22T02:00:21.061Z,5.53
2023-04-22T02:02:47.815Z,6.28
2023-04-22T02:05:15.832Z,5.80
2023-04-22T02:07:42.469Z,5.43
2023-04-22T02:10:09.842Z,6.00
2023-04-22T02:12:36.617Z,5.72
2023-04-22T02:15:03.853Z,6.13
2023-04-22T02:17:30.528Z,6.22
2023-04-22T02:19:57.338Z,5.47
2023-04-22T02:22:24.180Z,5.20
2023-04-22T02:24:50.834Z,5.70
2023-04-22T02:27:20.652Z,5.57
2023-04-22T02:29:48.457Z,5.35
2023-04-22T02:32:17.258Z,6.38
2023-04-22T02:34:43.982Z,6.22
2023-04-22T02:37:10.596Z,5.75
2023-04-22T02:39:37.457Z,5.03
2023-04-22T02:42:04.485Z,5.82
2023-04-22T02:44:31.020Z,5.95
2023-04-22T02:46:57.842Z,6.00
2023-04-22T02:49:24.804Z,6.18
2023-04-22T02:51:51.487Z,6.03
2023-04-22T02:54:18.160Z,5.50
2023-04-22T02:56:44.838Z,6.20
2023-04-22T02:59:11.610Z,5.47
2023-04-22T03:01:38.333Z,6.05
2023-04-22T03:04:05.155Z,6.20
2023-04-22T03:06:32.683Z,5.78
2023-04-22T03:08:59.384Z,6.28
2023-04-22T03:11:26.487Z,6.05
2023-04-22T03:13:53.164Z,5.85
2023-04-22T03:16:22.994Z,6.25
2023-04-22T03:18:49.836Z,5.82
2023-04-22T03:21:16.523Z,6.07
2023-04-22T03:23:43.249Z,5.40
2023-04-22T03:26:09.887Z,5.18
2023-04-22T03:28:36.550Z,5.68
2023-04-22T03:31:03.265Z,5.97
2023-04-22T03:33:29.910Z,5.43
2023-04-22T03:35:56.699Z,6.00
2023-04-22T03:38:23.444Z,5.38
2023-04-22T03:40:51.603Z,6.15
2023-04-22T03:43:18.479Z,5.95
2023-04-22T03:45:45.468Z,5.75
2023-04-22T03:48:12.214Z,5.47
2023-04-22T03:50:39.018Z,6.00
2023-04-22T03:53:05.774Z,5.55
2023-04-22T03:55:32.492Z,5.85
2023-04-22T03:57:59.205Z,5.78
2023-04-22T04:00:26.204Z,6.47
2023-04-22T04:02:53.004Z,6.20
2023-04-22T04:05:20.008Z,6.20
2023-04-22T04:07:46.718Z,6.13
2023-04-22T04:10:13.449Z,6.07
2023-04-22T04:12:40.067Z,6.22
2023-04-22T04:15:07.723Z,5.93
2023-04-22T04:17:34.417Z,5.97
2023-04-22T04:20:01.181Z,5.65
2023-04-22T04:22:29.185Z,5.93
2023-04-22T04:24:56.084Z,6.35
2023-04-22T04:27:23.950Z,5.68
2023-04-22T04:29:50.646Z,6.10
2023-04-22T04:32:18.259Z,5.90
2023-04-22T04:34:44.933Z,5.75
2023-04-22T04:37:11.692Z,5.32
2023-04-22T04:39:38.575Z,5.30
2023-04-22T04:42:05.538Z,5.80
2023-04-22T04:44:32.418Z,5.63
2023-04-22T04:46:59.307Z,5.53
2023-04-22T04:49:26.422Z,5.97
2023-04-22T04:51:53.064Z,6.05
2023-04-22T04:54:19.753Z,5.57
2023-04-22T04:56:46.367Z,5.40
2023-04-22T04:59:13.039Z,4.93
2023-04-22T05:01:39.811Z,5.63
2023-04-22T05:04:06.597Z,5.47
2023-04-22T05:06:33.760Z,5.18
2023-04-22T05:09:00.555Z,5.18
2023-04-22T05:11:27.200Z,5.10
2023-04-22T05:13:53.942Z,5.75
2023-04-22T05:16:20.684Z,5.65
2023-04-22T05:18:47.416Z,5.10
2023-04-22T05:21:14.250Z,5.18
2023-04-22T05:23:40.917Z,4.43
2023-04-22T05:26:07.578Z,4.03
2023-04-22T05:28:34.259Z,3.92
2023-04-22T05:31:00.913Z,3.80
2023-04-22T05:33:27.566Z,4.93
2023-04-22T05:35:54.238Z,4.75
2023-04-22T05:38:20.942Z,4.65
2023-04-22T05:40:47.606Z,4.90
2023-04-22T05:43:14.777Z,4.70
2023-04-22T05:45:41.533Z,5.15
2023-04-22T05:48:08.786Z,4.20
2023-04-22T05:50:35.630Z,4.35
2023-04-22T05:53:02.263Z,4.95
2023-04-22T05:55:29.048Z,4.70
2023-04-22T05:57:55.671Z,4.75
2023-04-22T06:00:22.354Z,5.68
2023-04-22T06:02:49.125Z,5.10
2023-04-22T06:05:16.034Z,4.75
2023-04-22T06:07:42.872Z,4.50
2023-04-22T06:10:10.066Z,4.13
2023-04-22T06:12:36.998Z,3.95
2023-04-22T06:15:04.615Z,3.55
2023-04-22T06:17:31.330Z,3.38
2023-04-22T06:19:58.029Z,3.10
2023-04-22T06:22:24.816Z,3.40
2023-04-22T06:24:51.434Z,3.45
2023-04-22T06:27:18.134Z,3.42
2023-04-22T06:29:45.285Z,4.00
2023-04-22T06:32:12.251Z,3.47
2023-04-22T06:34:38.913Z,3.15
2023-04-22T06:37:06.194Z,2.90
2023-04-22T06:39:32.899Z,2.88
2023-04-22T06:41:59.648Z,3.20
2023-04-22T06:44:26.373Z,3.33
2023-04-22T06:46:54.664Z,3.10
2023-04-22T06:49:22.627Z,2.88
2023-04-22T06:51:49.408Z,2.83
2023-04-22T06:54:16.098Z,2.88
2023-04-22T06:56:42.851Z,2.95
2023-04-22T06:59:09.572Z,3.10
2023-04-22T07:01:36.290Z,3.13
2023-04-22T07:04:03.071Z,2.95
2023-04-22T07:06:29.791Z,3.40
2023-04-22T07:08:56.463Z,3.38
2023-04-22T07:11:23.238Z,2.78
2023-04-22T07:13:49.885Z,3.30
2023-04-22T07:16:16.672Z,3.08
2023-04-22T07:18:43.519Z,3.40
2023-04-22T07:21:10.208Z,2.90
2023-04-22T07:23:36.931Z,3.10
2023-04-22T07:26:03.650Z,3.10
2023-04-22T07:28:30.255Z,2.90
2023-04-22T07:30:56.913Z,2.90
2023-04-22T07:33:23.761Z,3.15
2023-04-22T07:35:50.376Z,2.80
2023-04-22T07:38:17.539Z,3.10
2023-04-22T07:40:44.227Z,2.88
2023-04-22T07:43:10.872Z,3.30
2023-04-22T07:45:37.695Z,2.92
2023-04-22T07:48:04.891Z,3.10
2023-04-22T07:50:31.628Z,2.97
2023-04-22T07:52:58.434Z,2.60
2023-04-22T07:55:25.332Z,3.25
2023-04-22T07:57:52.045Z,3.05
2023-04-22T08:00:18.768Z,3.25
2023-04-22T08:02:46.920Z,3.20
2023-04-22T08:05:13.834Z,3.22
2023-04-22T08:07:40.864Z,2.80
2023-04-22T08:10:08.052Z,2.60
2023-04-22T08:12:34.924Z,3.20
2023-04-22T08:15:01.676Z,2.70
2023-04-22T08:17:28.493Z,2.70
2023-04-22T08:19:55.235Z,2.78
2023-04-22T08:22:23.833Z,3.00
2023-04-22T08:24:50.593Z,2.78
2023-04-22T08:27:19.152Z,2.70
2023-04-22T08:29:45.817Z,2.85
2023-04-22T08:32:12.561Z,3.15
2023-04-22T08:34:39.374Z,2.65
2023-04-22T08:37:06.234Z,2.83
2023-04-22T08:39:32.936Z,3.08
2023-04-22T08:41:59.700Z,2.92
2023-04-22T08:44:27.151Z,2.45
2023-04-22T08:46:55.861Z,3.03
2023-04-22T08:49:25.277Z,2.30
2023-04-22T08:51:53.208Z,2.95
2023-04-22T08:54:19.937Z,2.50
2023-04-22T08:56:47.174Z,2.30
2023-04-22T08:59:14.067Z,2.72
2023-04-22T09:01:41.844Z,2.50
2023-04-22T09:04:10.838Z,2.75
2023-04-22T09:06:38.835Z,2.83
2023-04-22T09:09:05.813Z,2.63
2023-04-22T09:11:33.776Z,2.85
2023-04-22T09:14:00.487Z,2.55
2023-04-22T09:16:29.732Z,3.00
2023-04-22T09:18:56.864Z,2.60
2023-04-22T09:21:28.091Z,3.17
2023-04-22T09:23:56.743Z,2.60
2023-04-22T09:26:26.449Z,2.72
2023-04-22T09:28:58.233Z,3.10
2023-04-22T09:31:25.576Z,2.80
2023-04-22T09:33:56.106Z,2.88
2023-04-22T09:36:25.900Z,2.55
2023-04-22T09:38:54.190Z,2.60
2023-04-22T09:41:28.757Z,2.60
2023-04-22T09:43:57.492Z,2.63
2023-04-22T09:46:25.645Z,2.70
2023-04-22T09:48:54.264Z,2.30
2023-04-22T09:51:21.212Z,2.80
2023-04-22T09:54:06.392Z,2.47
2023-04-22T09:56:51.303Z,2.10
2023-04-22T09:59:33.348Z,2.25
2023-04-22T10:02:03.924Z,2.10
2023-04-22T10:04:31.099Z,2.10
2023-04-22T10:06:57.892Z,2.20
2023-04-22T10:09:25.866Z,1.98
2023-04-22T10:11:54.629Z,2.20
2023-04-22T10:14:23.054Z,2.10
2023-04-22T10:16:52.877Z,2.30
2023-04-22T10:19:22.389Z,1.90
2023-04-22T10:21:55.826Z,2.17
2023-04-22T10:24:25.031Z,1.90
2023-04-22T10:26:59.876Z,1.95
2023-04-22T10:29:34.803Z,2.08
2023-04-22T10:32:05.667Z,1.88
2023-04-22T10:34:32.746Z,2.20
2023-04-22T10:37:05.056Z,2.17
2023-04-22T10:39:32.096Z,2.30
2023-04-22T10:42:10.192Z,2.03
2023-04-22T10:44:53.887Z,1.88
2023-04-22T10:47:30.707Z,1.70
2023-04-22T10:50:21.559Z,2.03
2023-04-22T10:52:50.003Z,1.73
2023-04-22T10:55:16.794Z,1.70
2023-04-22T10:57:48.284Z,2.00
2023-04-22T11:00:20.802Z,2.08
2023-04-22T11:02:55.997Z,1.58
2023-04-22T11:05:27.045Z,1.80
2023-04-22T11:07:56.237Z,1.80
2023-04-22T11:10:43.590Z,1.67
2023-04-22T11:13:14.368Z,1.40
2023-04-22T11:15:43.663Z,1.75
2023-04-22T11:18:14.342Z,1.63
2023-04-22T11:20:41.242Z,1.40
2023-04-22T11:23:08.072Z,1.60
2023-04-22T11:25:34.997Z,1.42
2023-04-22T11:28:01.765Z,1.67
2023-04-22T11:30:31.311Z,1.80
2023-04-22T11:33:00.004Z,1.88
2023-04-22T11:35:28.701Z,1.55
2023-04-22T11:38:00.426Z,1.60
2023-04-22T11:40:35.858Z,1.52
2023-04-22T11:43:06.310Z,1.52
2023-04-22T11:45:34.456Z,1.55
2023-04-22T11:48:02.460Z,1.65
2023-04-22T11:50:31.789Z,1.80
2023-04-22T11:53:04.387Z,1.55
2023-04-22T11:55:36.020Z,1.60
2023-04-22T11:58:07.285Z,1.73
2023-04-22T12:00:41.222Z,1.50
2023-04-22T12:03:25.618Z,1.63
2023-04-22T12:05:55.003Z,1.35
2023-04-22T12:08:24.305Z,1.55
2023-04-22T12:10:55.087Z,1.48
2023-04-22T12:13:29.720Z,1.63
2023-04-22T12:16:01.237Z,1.55
2023-04-22T12:18:37.702Z,1.63
2023-04-22T12:21:04.395Z,1.40
2023-04-22T12:23:41.193Z,1.50
2023-04-22T12:26:07.995Z,1.75
2023-04-22T12:28:34.843Z,1.50
2023-04-22T12:31:01.491Z,1.55
2023-04-22T12:33:28.167Z,1.65
2023-04-22T12:35:54.903Z,1.38
2023-04-22T12:38:21.559Z,1.50
2023-04-22T12:40:48.501Z,1.70
2023-04-22T12:43:15.181Z,1.42
2023-04-22T12:45:41.826Z,1.30
2023-04-22T12:48:08.602Z,1.50
2023-04-22T12:50:35.333Z,1.50
2023-04-22T12:53:02.188Z,1.40
2023-04-22T12:55:29.526Z,1.48
2023-04-22T12:57:56.713Z,1.30
2023-04-22T13:00:24.359Z,1.40
2023-04-22T13:02:51.207Z,1.27
2023-04-22T13:05:19.233Z,1.40
2023-04-22T13:07:50.757Z,1.52
2023-04-22T13:10:28.248Z,1.35
2023-04-22T13:12:58.573Z,1.17
2023-04-22T13:15:33.028Z,1.42
2023-04-22T13:17:59.787Z,1.35
2023-04-22T13:20:26.574Z,1.30
2023-04-22T13:22:53.688Z,1.58
2023-04-22T13:25:20.660Z,1.33
2023-04-22T13:27:47.403Z,1.30
2023-04-22T13:30:14.423Z,1.20
2023-04-22T13:32:41.098Z,1.70
2023-04-22T13:35:09.180Z,1.40
2023-04-22T13:37:36.853Z,1.52
2023-04-22T13:40:05.785Z,1.45
2023-04-22T13:42:32.538Z,1.77
2023-04-22T13:44:59.216Z,1.65
2023-04-22T13:47:25.935Z,1.60
2023-04-22T13:49:52.722Z,1.77
2023-04-22T13:52:19.458Z,1.80
2023-04-22T13:54:46.213Z,1.50
2023-04-22T13:57:12.899Z,1.60
2023-04-22T13:59:41.763Z,1.67
2023-04-22T14:02:09.093Z,1.70
2023-04-22T14:04:36.102Z,1.60
2023-04-22T14:07:03.847Z,1.58
2023-04-22T14:09:31.007Z,1.60
2023-04-22T14:11:57.832Z,1.45
2023-04-22T14:14:24.694Z,1.70
2023-04-22T14:16:51.835Z,1.60
2023-04-22T14:19:18.616Z,1.73
2023-04-22T14:21:45.672Z,1.43
2023-04-22T14:24:12.411Z,1.80
2023-04-22T14:26:39.323Z,1.83
2023-04-22T14:29:06.260Z,1.75
2023-04-22T14:31:33.033Z,1.58
2023-04-22T14:33:59.672Z,1.73
2023-04-22T14:36:27.607Z,1.42
2023-04-22T14:38:54.298Z,1.63
2023-04-22T14:41:21.603Z,1.60
2023-04-22T14:43:48.679Z,1.40
2023-04-22T14:46:15.565Z,1.73
2023-04-22T14:48:42.339Z,1.50
2023-04-22T14:51:09.045Z,1.70
2023-04-22T14:53:35.765Z,1.60
2023-04-22T14:56:02.434Z,1.60
2023-04-22T14:58:31.586Z,1.50
2023-04-22T15:01:00.088Z,1.63
2023-04-22T15:03:27.408Z,1.70
2023-04-22T15:05:55.434Z,1.40
2023-04-22T15:08:25.081Z,1.50
2023-04-22T15:10:51.750Z,1.48
2023-04-22T15:13:19.561Z,1.40
2023-04-22T15:15:46.679Z,1.50
2023-04-22T15:18:13.454Z,1.53
2023-04-22T15:20:40.514Z,1.50
2023-04-22T15:23:07.233Z,1.58
2023-04-22T15:25:33.998Z,1.48
2023-04-22T15:28:00.657Z,1.50
2023-04-22T15:30:27.309Z,1.50
2023-04-22T15:32:53.984Z,1.40
2023-04-22T15:35:22.501Z,1.27
2023-04-22T15:37:49.173Z,1.50
2023-04-22T15:40:16.208Z,1.33
2023-04-22T15:42:42.951Z,1.60
2023-04-22T15:45:10.131Z,1.40
2023-04-22T15:47:39.468Z,1.63
2023-04-22T15:50:08.881Z,1.67
2023-04-22T15:52:37.601Z,1.70
2023-04-22T15:55:05.616Z,1.48
2023-04-22T15:57:35.005Z,1.98
2023-04-22T16:00:11.964Z,2.67
2023-04-22T16:02:41.067Z,1.95
2023-04-22T16:05:08.590Z,2.70
2023-04-22T16:07:35.750Z,2.30
2023-04-22T16:10:02.684Z,1.90
2023-04-22T16:12:30.152Z,1.90
2023-04-22T16:14:58.087Z,1.67
2023-04-22T16:17:25.138Z,1.70
2023-04-22T16:19:51.872Z,1.75
2023-04-22T16:22:18.689Z,2.00
2023-04-22T16:24:45.449Z,2.20
2023-04-22T16:27:16.413Z,7.07
2023-04-22T16:29:43.917Z,4.97
2023-04-22T16:32:11.157Z,3.60
2023-04-22T16:34:38.411Z,8.00
2023-04-22T16:37:05.680Z,2.28
2023-04-22T16:39:32.787Z,3.95
2023-04-22T16:41:59.685Z,2.83
2023-04-22T16:44:26.356Z,1.80
2023-04-22T16:46:53.015Z,8.90
2023-04-22T16:49:20.094Z,3.88
2023-04-22T16:51:46.909Z,4.07
2023-04-22T16:54:13.692Z,7.37
2023-04-22T16:56:40.476Z,23.75
2023-04-22T16:59:07.270Z,3.35
2023-04-22T17:01:34.292Z,2.88
2023-04-22T17:04:01.514Z,3.20
2023-04-22T17:06:28.391Z,3.00
2023-04-22T17:08:55.159Z,2.55
2023-04-22T17:11:22.924Z,2.72
2023-04-22T17:13:50.107Z,2.20
2023-04-22T17:16:17.183Z,2.28
2023-04-22T17:18:44.377Z,2.38
2023-04-22T17:21:11.024Z,2.42
2023-04-22T17:23:38.117Z,2.60
2023-04-22T17:26:04.829Z,2.80
2023-04-22T17:28:31.769Z,2.00
2023-04-22T17:30:58.503Z,1.85
2023-04-22T17:33:26.460Z,1.80
2023-04-22T17:35:53.088Z,1.70
2023-04-22T17:38:19.743Z,1.75
2023-04-22T17:40:46.515Z,2.30
2023-04-22T17:43:13.326Z,1.70
2023-04-22T17:45:39.958Z,1.85
2023-04-22T17:48:06.728Z,2.30
2023-04-22T17:50:33.436Z,2.10
2023-04-22T17:53:00.453Z,2.40
2023-04-22T17:55:27.241Z,1.75
2023-04-22T17:57:53.934Z,1.80
2023-04-22T18:00:20.878Z,2.00
2023-04-22T18:02:47.927Z,1.83
2023-04-22T18:05:14.704Z,2.05
2023-04-22T18:07:41.346Z,2.72
2023-04-22T18:10:08.890Z,2.70
2023-04-22T18:12:35.803Z,2.38
2023-04-22T18:15:02.621Z,2.03
2023-04-22T18:17:29.322Z,2.47
2023-04-22T18:20:09.800Z,2.10
2023-04-22T18:22:41.736Z,1.95
2023-04-22T18:25:09.388Z,1.93
2023-04-22T18:27:36.112Z,1.88
2023-04-22T18:30:03.069Z,1.73
2023-04-22T18:32:29.915Z,2.00
2023-04-22T18:34:56.761Z,2.10
2023-04-22T18:37:23.541Z,1.85
2023-04-22T18:39:50.293Z,2.47
2023-04-22T18:42:16.982Z,2.30
2023-04-22T18:44:43.838Z,2.13
2023-04-22T18:47:10.588Z,2.30
2023-04-22T18:49:37.265Z,2.40
2023-04-22T18:52:04.077Z,2.65
2023-04-22T18:54:30.855Z,3.00
2023-04-22T18:56:58.189Z,2.70
2023-04-22T18:59:25.061Z,3.17
2023-04-22T19:01:51.918Z,3.40
2023-04-22T19:04:19.071Z,3.42
2023-04-22T19:06:45.934Z,3.97
2023-04-22T19:09:12.587Z,3.40
2023-04-22T19:11:39.470Z,2.90
2023-04-22T19:14:06.366Z,3.35
2023-04-22T19:16:33.462Z,2.92
2023-04-22T19:19:00.119Z,2.90
2023-04-22T19:21:27.202Z,2.70
2023-04-22T19:23:53.983Z,2.35
2023-04-22T19:26:22.008Z,2.80
2023-04-22T19:28:49.210Z,3.00
2023-04-22T19:31:17.185Z,3.03
2023-04-22T19:33:44.752Z,3.40
2023-04-22T19:36:11.382Z,3.85
2023-04-22T19:38:38.117Z,3.55
2023-04-22T19:41:04.902Z,3.88
2023-04-22T19:43:31.628Z,4.10
2023-04-22T19:45:58.431Z,4.80
2023-04-22T19:48:25.416Z,5.22
2023-04-22T19:50:52.199Z,4.80
2023-04-22T19:53:19.870Z,4.35
2023-04-22T19:55:46.934Z,3.45
2023-04-22T19:58:14.246Z,2.70
2023-04-22T20:00:42.614Z,3.10
2023-04-22T20:03:10.116Z,2.88
2023-04-22T20:05:37.556Z,3.00
2023-04-22T20:08:07.582Z,3.05
2023-04-22T20:10:34.501Z,2.65
2023-04-22T20:13:03.503Z,2.70
2023-04-22T20:15:30.436Z,2.50
2023-04-22T20:17:57.334Z,2.35
2023-04-22T20:20:24.298Z,3.35
2023-04-22T20:22:52.493Z,2.75
2023-04-22T20:25:19.520Z,2.70
2023-04-22T20:27:46.850Z,2.50
2023-04-22T20:30:14.474Z,3.00
2023-04-22T20:32:42.010Z,3.95
2023-04-22T20:35:14.839Z,3.53
2023-04-22T20:37:41.792Z,3.27
2023-04-22T20:40:09.096Z,3.53
2023-04-22T20:42:36.950Z,3.30
2023-04-22T20:45:05.768Z,3.40
2023-04-22T20:47:32.932Z,2.80
2023-04-22T20:49:59.712Z,3.50
2023-04-22T20:52:26.589Z,3.37
2023-04-22T20:54:56.413Z,3.35
2023-04-22T20:57:23.634Z,3.30
2023-04-22T20:59:50.450Z,2.90
2023-04-22T21:02:17.850Z,3.00
2023-04-22T21:04:44.787Z,2.97
2023-04-22T21:07:11.976Z,2.90
2023-04-22T21:09:38.795Z,3.10
2023-04-22T21:12:06.016Z,2.85
2023-04-22T21:14:32.974Z,3.00
2023-04-22T21:17:04.343Z,2.60
2023-04-22T21:19:33.982Z,2.90
2023-04-22T21:22:06.018Z,2.60
2023-04-22T21:24:35.003Z,2.67
2023-04-22T21:27:02.948Z,2.97
2023-04-22T21:29:30.009Z,2.42
2023-04-22T21:32:07.999Z,2.28
2023-04-22T21:34:36.041Z,2.47
2023-04-22T21:37:02.875Z,2.78
2023-04-22T21:39:29.913Z,2.80
2023-04-22T21:41:56.664Z,2.90
2023-04-22T21:44:23.268Z,3.00
2023-04-22T21:46:50.045Z,2.70
2023-04-22T21:49:16.720Z,3.03
2023-04-22T21:51:44.101Z,2.97
2023-04-22T21:54:11.321Z,2.90
2023-04-22T21:56:38.006Z,3.15
2023-04-22T21:59:04.744Z,3.03
2023-04-22T22:01:31.527Z,3.33
2023-04-22T22:03:58.439Z,3.00
2023-04-22T22:06:25.398Z,3.25
2023-04-22T22:08:53.210Z,3.30
2023-04-22T22:11:30.298Z,3.30
2023-04-22T22:13:57.317Z,3.03
2023-04-22T22:16:24.720Z,3.15
2023-04-22T22:18:51.879Z,3.40
2023-04-22T22:21:18.695Z,3.13
2023-04-22T22:23:45.427Z,3.35
2023-04-22T22:26:15.041Z,2.97
2023-04-22T22:28:41.761Z,3.15
2023-04-22T22:31:08.456Z,2.90
2023-04-22T22:33:35.285Z,2.80
2023-04-22T22:36:02.371Z,2.85
2023-04-22T22:38:29.085Z,2.83
2023-04-22T22:40:55.891Z,2.97
2023-04-22T22:43:22.718Z,3.07
2023-04-22T22:45:49.516Z,3.45
2023-04-22T22:48:16.361Z,3.17
2023-04-22T22:50:43.438Z,3.33
2023-04-22T22:53:10.077Z,3.50
2023-04-22T22:55:36.969Z,3.40
2023-04-22T22:58:03.651Z,3.58
2023-04-22T23:00:30.304Z,3.40
2023-04-22T23:02:57.191Z,3.50
2023-04-22T23:05:23.985Z,3.60
2023-04-22T23:07:50.588Z,3.42
2023-04-22T23:10:17.333Z,3.13
2023-04-22T23:12:43.981Z,3.47
2023-04-22T23:15:11.059Z,2.88
2023-04-22T23:17:38.063Z,2.60
2023-04-22T23:20:07.557Z,3.25
2023-04-22T23:22:35.758Z,3.10
2023-04-22T23:25:02.667Z,3.30
2023-04-22T23:27:30.478Z,3.10
2023-04-22T23:29:58.729Z,3.45
2023-04-22T23:32:26.873Z,3.42
2023-04-22T23:34:54.247Z,3.17
2023-04-22T23:37:21.682Z,3.65
2023-04-22T23:39:48.369Z,3.20
2023-04-22T23:42:15.072Z,3.40
2023-04-22T23:44:41.977Z,3.50
2023-04-22T23:47:08.992Z,3.70
2023-04-22T23:49:35.758Z,3.50
2023-04-22T23:52:02.570Z,3.83
2023-04-22T23:54:30.055Z,3.27
2023-04-22T23:56:57.964Z,3.10
2023-04-22T23:59:24.985Z,3.20
